CW1967 Weather Reports


Display with metric or nautical units.
time (UTC)temp
F
wind
direction
speed
MPH
gust
MPH
rain 1hr
in
rain 24hr
in
rain mn
in
humidity
%
barometer
mb
20240620022658 78 40 0.0 0.0 0.00 0.01 0.01 89 1019.7
20240620022204 71 149 0.0 1.0 0.00 0.00 0.00 89 1030.0
20240620022157 78 40 0.0 0.0 0.00 0.01 0.01 89 1019.7
20240620021656 78 40 0.0 0.0 0.00 0.01 0.01 89 1019.6
20240620021519 56 183 4.0 6.0 0.00 0.02 0.00 93 1015.9
20240620021204 71 249 1.0 2.0 0.00 0.00 0.00 88 1030.0
20240620021154 78 40 0.0 0.0 0.00 0.01 0.01 88 1019.6
20240620020703 71 278 1.0 1.0 0.00 0.00 0.00 88 1029.9
20240620020653 78 40 0.0 0.0 0.00 0.01 0.01 88 1019.6
20240620020203 71 235 0.0 1.0 0.00 0.00 0.00 87 1029.9
20240620020152 78 40 0.0 0.0 0.00 0.01 0.01 88 1019.5
20240620020015 56 161 3.0 4.0 0.00 0.02 0.00 93 1016.1
20240620015652 78 40 0.0 0.0 0.00 0.01 0.01 87 1019.6
20240620015204 72 310 0.0 1.0 0.00 0.00 0.00 85 1029.7
20240620015149 78 40 0.0 0.0 0.00 0.01 0.01 87 1019.4
20240620014648 78 39 0.0 0.0 0.00 0.01 0.01 87 1019.3
20240620014514 56 84 0.0 0.0 0.00 0.02 0.00 93 1016.3
20240620014203 72 220 0.0 1.0 0.00 0.00 0.00 85 1029.9
20240620014145 79 39 0.0 0.0 0.00 0.01 0.01 87 1019.3
20240620013704 72 189 0.0 0.0 0.00 0.00 0.00 84 1029.9
20240620013645 78 30 0.0 0.0 0.00 0.01 0.01 86 1019.3
20240620013203 73 209 0.0 0.0 0.00 0.00 0.00 83 1029.9
20240620013144 79 30 0.0 0.0 0.00 0.01 0.01 86 1019.4
20240620013020 56 84 0.0 1.0 0.00 0.02 0.00 92 1016.3
20240620012704 73 203 0.0 0.0 0.00 0.00 0.00 83 1029.8
20240620012642 79 30 0.0 0.0 0.00 0.01 0.01 85 1019.3
20240620012204 73 242 0.0 1.0 0.00 0.00 0.00 82 1029.8
20240620012142 79 36 0.0 0.0 0.00 0.01 0.01 85 1019.2
20240620011703 73 212 0.0 1.0 0.00 0.00 0.00 81 1029.8
20240620011642 80 21 0.0 0.0 0.00 0.01 0.01 83 1019.1
20240620011516 56 81 2.0 3.0 0.00 0.02 0.00 92 1016.4
20240620011204 74 251 0.0 1.0 0.00 0.00 0.00 80 1029.6
20240620011140 80 29 0.0 1.0 0.00 0.01 0.01 82 1019.0
20240620010500 80 45 1.0 1.0 0.00 0.01 0.01 82 1019.0
20240620010204 74 192 0.0 1.0 0.00 0.00 0.00 79 1029.6
20240620010019 57 107 1.0 3.0 0.00 0.02 0.00 93 1016.1
20240620005959 80 86 3.0 3.0 0.00 0.01 0.01 81 1019.0
20240620005703 74 167 1.0 5.0 0.00 0.00 0.00 78 1029.8
20240620005459 80 64 1.0 1.0 0.00 0.01 0.01 81 1018.8
20240620004958 80 81 2.0 2.0 0.00 0.01 0.01 80 1018.7
20240620004704 75 54 1.0 3.0 0.00 0.00 0.00 77 1029.7
20240620004511 56 164 0.0 0.0 0.00 0.02 0.00 92 1016.2
20240620004457 80 99 3.0 3.0 0.00 0.01 0.01 80 1018.8
20240620004203 75 77 1.0 2.0 0.00 0.00 0.00 77 1029.8
20240620003957 81 89 1.0 2.0 0.00 0.01 0.01 79 1018.7
20240620003455 81 100 3.0 3.0 0.00 0.01 0.01 78 1018.6
20240620003204 76 88 1.0 2.0 0.00 0.00 0.00 75 1029.7
20240620003017 57 296 0.0 1.0 0.00 0.02 0.00 92 1016.3
20240620002953 81 100 3.0 3.0 0.00 0.01 0.01 78 1018.7
20240620002704 76 135 0.0 3.0 0.00 0.00 0.00 75 1029.6
20240620002452 81 97 3.0 3.0 0.00 0.01 0.01 78 1018.6
20240620002204 76 71 1.0 2.0 0.00 0.00 0.00 74 1029.5
20240620001951 81 97 2.0 3.0 0.00 0.01 0.01 78 1018.5
20240620001704 76 74 0.0 1.0 0.00 0.00 0.00 73 1029.5
20240620001507 56 296 0.0 0.0 0.00 0.02 0.00 92 1016.4
20240620001449 81 81 3.0 3.0 0.00 0.01 0.01 78 1018.3
20240620000947 81 106 3.0 3.0 0.00 0.01 0.01 78 1018.4
20240620000704 77 76 1.0 5.0 0.00 0.00 0.00 72 1029.5
20240620000447 81 113 2.0 3.0 0.00 0.01 0.01 78 1018.4
20240620000205 77 125 2.0 6.0 0.00 0.00 0.00 70 1029.4
20240620000006 56 296 0.0 1.0 0.00 0.02 0.00 91 1016.6
20240619235945 81 92 4.0 5.0 0.00 0.01 0.01 78 1018.3
20240619235444 81 105 3.0 3.0 0.00 0.01 0.01 77 1018.3
20240619235203 78 91 1.0 5.0 0.00 0.00 0.00 70 1029.5
20240619234944 81 116 3.0 5.0 0.00 0.01 0.01 77 1018.4
20240619234704 78 75 2.0 5.0 0.00 0.00 0.00 69 1029.6
20240619234505 56 296 0.0 4.0 0.00 0.02 0.00 91 1016.6
20240619234443 81 56 2.0 3.0 0.00 0.01 0.01 78 1018.5
20240619234203 78 195 1.0 2.0 0.00 0.00 0.00 68 1029.5
20240619233943 81 119 3.0 5.0 0.00 0.01 0.01 78 1018.3
20240619233704 79 178 2.0 5.0 0.00 0.00 0.00 67 1029.5
20240619233442 81 65 3.0 3.0 0.00 0.01 0.01 78 1018.3
20240619233203 79 120 2.0 5.0 0.00 0.00 0.00 66 1029.4
20240619233002 57 21 0.0 3.0 0.00 0.02 0.00 91 1016.9
20240619232941 82 74 1.0 1.0 0.00 0.01 0.01 79 1018.3
20240619232439 82 86 1.0 2.0 0.00 0.01 0.01 78 1018.4
20240619232204 81 59 2.0 6.0 0.00 0.00 0.00 64 1029.4
20240619231938 82 95 1.0 2.0 0.00 0.01 0.01 77 1018.2
20240619231704 81 359 2.0 5.0 0.00 0.00 0.00 64 1029.4
20240619231559 58 270 0.0 1.0 0.00 0.02 0.00 91 1016.8
20240619231436 82 103 3.0 5.0 0.00 0.01 0.01 76 1018.1
20240619231204 80 106 2.0 8.0 0.00 0.00 0.00 66 1029.2
20240619230935 82 89 3.0 3.0 0.00 0.01 0.01 76 1017.9
20240619230704 81 239 1.0 8.0 0.00 0.00 0.00 64 1029.5
20240619230434 82 90 2.0 2.0 0.00 0.01 0.01 75 1018.1
20240619230058 58 270 0.0 2.0 0.00 0.02 0.00 91 1016.9
20240619225934 83 95 3.0 3.0 0.00 0.01 0.01 75 1018.0
20240619225432 83 344 1.0 2.0 0.00 0.01 0.01 75 1017.9
20240619225204 81 22 1.0 6.0 0.00 0.00 0.00 64 1029.3
20240619224931 83 45 3.0 5.0 0.00 0.01 0.01 74 1017.8
20240619224703 81 163 3.0 7.0 0.00 0.00 0.00 63 1029.3
20240619224659 59 270 0.0 1.0 0.00 0.10 0.00 91 1016.9
20240619224430 83 117 5.0 7.0 0.00 0.01 0.01 73 1017.9
20240619224204 81 86 3.0 7.0 0.00 0.00 0.00 64 1029.4
20240619223929 84 123 3.0 5.0 0.00 0.01 0.01 75 1017.8
20240619223704 81 109 2.0 7.0 0.00 0.00 0.00 63 1029.3
20240619223427 84 21 0.0 1.0 0.00 0.01 0.01 76 1017.8
20240619223203 82 22 3.0 6.0 0.00 0.00 0.00 62 1029.2
20240619223057 58 270 0.0 0.0 0.00 0.10 0.00 90 1017.0
20240619222926 84 95 2.0 3.0 0.00 0.01 0.01 75 1017.9
20240619222703 82 69 2.0 7.0 0.00 0.00 0.00 62 1029.3
20240619222425 84 73 2.0 5.0 0.00 0.01 0.01 74 1017.8
20240619222204 81 122 6.0 13.0 0.00 0.00 0.00 63 1029.2
20240619221923 84 103 5.0 6.0 0.00 0.01 0.01 74 1017.9
20240619221703 82 52 2.0 5.0 0.00 0.00 0.00 63 1029.3
20240619221612 59 270 0.0 0.0 0.00 0.10 0.00 90 1017.1
20240619221421 84 116 3.0 3.0 0.00 0.01 0.01 74 1017.8
20240619221203 81 46 4.0 12.0 0.00 0.00 0.00 64 1029.3
20240619220921 84 42 0.0 1.0 0.00 0.01 0.01 76 1017.8
20240619220704 81 91 5.0 12.0 0.00 0.00 0.00 64 1029.0
20240619220420 84 191 2.0 5.0 0.00 0.01 0.01 76 1017.8
20240619220203 81 83 3.0 9.0 0.00 0.00 0.00 64 1029.1
20240619220050 60 270 0.0 0.0 0.00 0.10 0.00 90 1017.2
20240619215919 85 92 1.0 2.0 0.00 0.01 0.01 76 1018.0
20240619215703 81 70 3.0 8.0 0.00 0.00 0.00 64 1029.0
20240619215418 86 119 2.0 3.0 0.00 0.01 0.01 72 1017.9
20240619215204 81 97 4.0 8.0 0.00 0.00 0.00 64 1029.0
20240619214917 86 52 1.0 1.0 0.00 0.01 0.01 69 1018.0
20240619214704 82 88 3.0 8.0 0.00 0.00 0.00 63 1029.2
20240619214548 60 270 0.0 2.0 0.00 0.27 0.10 90 1017.3
20240619214416 86 76 4.0 6.0 0.00 0.01 0.01 67 1017.9
20240619213914 86 121 1.0 1.0 0.00 0.01 0.01 68 1018.0
20240619213704 82 28 3.0 6.0 0.00 0.00 0.00 64 1029.3
20240619213413 86 61 4.0 5.0 0.00 0.01 0.01 68 1017.9
20240619213045 61 270 1.0 2.0 0.00 0.27 0.10 89 1017.3
20240619212912 85 91 5.0 7.0 0.00 0.01 0.01 68 1018.0
20240619212704 83 133 3.0 7.0 0.00 0.00 0.00 62 1029.5
20240619212411 85 114 2.0 3.0 0.00 0.01 0.01 68 1018.0
20240619212204 82 111 5.0 9.0 0.00 0.00 0.00 62 1029.6
20240619211908 85 132 4.0 6.0 0.00 0.01 0.01 68 1017.8
20240619211703 82 44 5.0 9.0 0.00 0.00 0.00 62 1029.4
20240619211543 61 270 0.0 0.0 0.00 0.27 0.10 88 1017.1
20240619211407 86 66 2.0 3.0 0.00 0.01 0.01 67 1017.9
20240619211204 81 41 4.0 8.0 0.00 0.00 0.00 63 1029.6
20240619210906 86 70 1.0 1.0 0.00 0.01 0.01 66 1018.1
20240619210704 82 83 4.0 9.0 0.00 0.00 0.00 61 1029.6
20240619210406 86 104 3.0 3.0 0.00 0.01 0.01 67 1018.0
20240619210046 61 270 0.0 0.0 0.00 0.27 0.10 87 1017.1
20240619205904 86 107 1.0 1.0 0.00 0.01 0.01 70 1017.9
20240619205704 82 35 4.0 8.0 0.00 0.00 0.00 60 1029.5
20240619205402 86 35 2.0 2.0 0.00 0.01 0.01 69 1017.7
20240619205204 82 47 3.0 13.0 0.00 0.00 0.00 61 1029.6
20240619204902 87 92 4.0 6.0 0.00 0.01 0.01 68 1017.7
20240619204703 82 132 5.0 13.0 0.00 0.00 0.00 57 1029.6
20240619204540 62 270 0.0 2.0 0.00 0.27 0.10 86 1016.9
20240619204359 88 67 4.0 6.0 0.00 0.01 0.01 66 1017.9
20240619204204 83 98 3.0 9.0 0.00 0.00 0.00 57 1029.6
20240619203857 89 58 4.0 6.0 0.00 0.01 0.01 65 1017.6
20240619203704 83 95 3.0 9.0 0.00 0.00 0.00 59 1029.6
20240619203355 88 85 4.0 5.0 0.00 0.01 0.01 64 1017.7
20240619203203 83 12 2.0 10.0 0.00 0.00 0.00 58 1029.6
20240619203046 63 270 1.0 2.0 0.00 0.27 0.10 86 1016.6
20240619202855 87 72 1.0 2.0 0.00 0.01 0.01 69 1017.9
20240619202704 82 58 4.0 9.0 0.00 0.00 0.00 60 1029.7
20240619202354 87 81 1.0 1.0 0.00 0.01 0.01 70 1017.7
20240619202203 82 67 3.0 8.0 0.00 0.00 0.00 61 1029.7
20240619201853 87 91 1.0 1.0 0.00 0.01 0.01 66 1017.8
20240619201703 82 121 5.0 9.0 0.00 0.00 0.00 60 1029.7
20240619201534 64 270 1.0 4.0 0.00 0.27 0.10 85 1016.5
20240619201352 87 116 2.0 2.0 0.00 0.01 0.01 62 1017.9
20240619201204 82 102 3.0 6.0 0.00 0.00 0.00 61 1029.8
20240619200850 87 103 2.0 2.0 0.00 0.01 0.01 65 1018.0
20240619200703 82 76 4.0 10.0 0.00 0.00 0.00 60 1029.7
20240619200348 87 2 5.0 6.0 0.00 0.01 0.01 64 1018.0
20240619200204 82 90 3.0 6.0 0.00 0.00 0.00 61 1029.7
20240619200043 65 223 2.0 4.0 0.00 0.27 0.10 84 1016.2
20240619195847 87 98 3.0 5.0 0.00 0.01 0.01 71 1018.0
20240619195703 82 125 5.0 13.0 0.00 0.00 0.00 58 1029.6
20240619195346 86 94 3.0 3.0 0.00 0.01 0.01 72 1018.1
20240619194846 85 113 4.0 5.0 0.00 0.01 0.01 73 1018.1
20240619194704 83 50 4.0 13.0 0.00 0.00 0.00 60 1029.6
20240619194533 66 200 2.0 4.0 0.00 0.27 0.10 83 1016.2
20240619194343 86 100 5.0 7.0 0.00 0.01 0.01 71 1018.4
20240619194203 84 81 4.0 7.0 0.00 0.00 0.00 59 1029.8
20240619193842 86 106 4.0 6.0 0.00 0.01 0.01 73 1018.4
20240619193704 83 104 3.0 8.0 0.00 0.00 0.00 59 1029.8
20240619193339 85 105 4.0 5.0 0.00 0.01 0.01 74 1018.2
20240619193203 84 139 5.0 8.0 0.00 0.00 0.00 58 1029.7
20240619193032 67 252 1.0 3.0 0.00 0.27 0.10 83 1016.0
20240619192838 83 105 2.0 2.0 0.00 0.01 0.01 82 1018.4
20240619192704 84 121 5.0 14.0 0.00 0.00 0.00 59 1029.8
20240619192335 81 66 1.0 1.0 0.07 0.01 0.01 89 1018.4
20240619191833 80 89 0.0 0.0 0.07 0.01 0.01 87 1018.6
20240619191704 84 78 2.0 9.0 0.00 0.00 0.00 54 1029.8
20240619191529 68 224 1.0 5.0 0.00 0.27 0.10 81 1015.8
20240619191331 84 80 5.0 6.0 0.00 0.00 0.00 77 1018.4
20240619191203 83 76 3.0 7.0 0.00 0.00 0.00 59 1030.0
20240619190829 86 56 2.0 2.0 0.00 0.00 0.00 73 1018.6
20240619190324 84 155 1.0 2.0 0.00 0.00 0.00 74 1018.4
20240619190204 83 117 3.0 8.0 0.00 0.00 0.00 58 1030.0
20240619190040 69 180 0.0 4.0 0.00 0.27 0.10 79 1015.7
20240619185823 84 121 4.0 6.0 0.00 0.00 0.00 75 1018.3
20240619185321 84 34 1.0 2.0 0.00 0.00 0.00 74 1018.5
20240619185203 85 89 5.0 9.0 0.00 0.00 0.00 55 1029.9
20240619184821 84 72 4.0 5.0 0.00 0.00 0.00 73 1018.5
20240619184704 86 42 4.0 10.0 0.00 0.00 0.00 55 1029.9
20240619184534 70 251 2.0 5.0 0.00 0.30 0.10 78 1015.6
20240619184320 85 70 1.0 2.0 0.00 0.00 0.00 74 1018.5
20240619184204 85 5 2.0 5.0 0.00 0.00 0.00 56 1029.9
20240619183818 84 98 3.0 5.0 0.00 0.00 0.00 74 1018.6
20240619183704 84 70 3.0 8.0 0.00 0.00 0.00 58 1029.9
20240619183314 84 82 1.0 2.0 0.00 0.00 0.00 74 1018.6
20240619183203 83 61 3.0 12.0 0.00 0.00 0.00 60 1030.0
20240619183026 70 230 4.0 7.0 0.00 0.30 0.10 76 1015.5
20240619182814 83 29 1.0 1.0 0.00 0.00 0.00 76 1018.7
20240619182704 85 54 3.0 6.0 0.00 0.00 0.00 58 1029.9
20240619182310 83 68 3.0 3.0 0.00 0.00 0.00 75 1018.7
20240619182203 83 144 4.0 9.0 0.00 0.00 0.00 57 1029.8
20240619181808 83 78 4.0 5.0 0.00 0.00 0.00 76 1018.7
20240619181703 84 66 5.0 8.0 0.00 0.00 0.00 58 1029.7
20240619181528 71 214 3.0 8.0 0.00 0.30 0.10 75 1015.3
20240619181307 83 102 3.0 5.0 0.00 0.00 0.00 77 1018.7
20240619181204 85 143 3.0 13.0 0.00 0.00 0.00 55 1029.9
20240619180806 83 85 2.0 2.0 0.00 0.00 0.00 78 1018.7
20240619180704 86 58 4.0 6.0 0.00 0.00 0.00 58 1029.8
20240619180302 83 99 3.0 5.0 0.00 0.00 0.00 77 1018.6
20240619180203 85 151 3.0 7.0 0.00 0.00 0.00 57 1029.8
20240619180025 71 180 4.0 10.0 0.00 0.30 0.10 76 1015.2
20240619175744 82 79 1.0 1.0 0.00 0.00 0.00 80 1018.6
20240619175703 85 21 3.0 7.0 0.00 0.00 0.00 57 1030.0
20240619175243 82 95 3.0 3.0 0.00 0.00 0.00 79 1018.6
20240619175204 85 141 3.0 7.0 0.00 0.00 0.00 56 1029.9
20240619174742 82 87 2.0 2.0 0.00 0.00 0.00 80 1018.8
20240619174704 85 62 3.0 9.0 0.00 0.00 0.00 58 1029.9
20240619174526 72 244 5.0 10.0 0.00 0.36 0.10 75 1015.1
20240619174241 82 65 0.0 1.0 0.00 0.00 0.00 80 1018.7
20240619174203 85 69 4.0 6.0 0.00 0.00 0.00 58 1030.2
20240619173741 81 95 1.0 1.0 0.00 0.00 0.00 80 1018.8
20240619173239 81 56 2.0 3.0 0.00 0.00 0.00 80 1018.9
20240619173204 83 41 3.0 7.0 0.00 0.00 0.00 57 1030.2
20240619173022 73 222 7.0 12.0 0.00 0.36 0.10 73 1015.2
20240619172737 82 95 2.0 2.0 0.00 0.00 0.00 79 1018.8
20240619172704 84 43 4.0 9.0 0.00 0.00 0.00 59 1030.2
20240619172236 82 101 1.0 2.0 0.00 0.00 0.00 79 1018.8
20240619172204 85 72 5.0 10.0 0.00 0.00 0.00 56 1030.1
20240619171734 83 99 2.0 3.0 0.00 0.00 0.00 77 1018.9
20240619171704 84 200 2.0 7.0 0.00 0.00 0.00 56 1030.1
20240619171524 72 240 5.0 8.0 0.00 0.36 0.10 74 1015.0
20240619171234 84 105 2.0 5.0 0.00 0.00 0.00 75 1018.8
20240619171204 85 93 2.0 5.0 0.00 0.00 0.00 55 1030.3
20240619170732 84 28 1.0 2.0 0.00 0.00 0.00 76 1018.9
20240619170704 85 64 4.0 9.0 0.00 0.00 0.00 57 1030.2
20240619170231 83 71 1.0 2.0 0.00 0.00 0.00 77 1018.8
20240619170204 85 115 3.0 5.0 0.00 0.00 0.00 55 1030.2
20240619170021 72 212 6.0 11.0 0.00 0.36 0.10 76 1014.9
20240619165730 82 355 2.0 2.0 0.00 0.00 0.00 78 1018.8
20240619165704 84 119 4.0 8.0 0.00 0.00 0.00 56 1030.1
20240619165228 82 62 1.0 1.0 0.00 0.00 0.00 79 1018.8
20240619165204 86 19 3.0 10.0 0.00 0.00 0.00 59 1030.1
20240619164728 82 111 2.0 3.0 0.00 0.00 0.00 78 1018.7
20240619164704 85 54 4.0 9.0 0.00 0.00 0.00 58 1030.3
20240619164521 71 228 5.0 10.0 0.00 0.36 0.10 77 1014.9
20240619164227 82 96 3.0 5.0 0.00 0.00 0.00 78 1018.7
20240619164204 84 140 2.0 10.0 0.00 0.00 0.00 58 1030.4
20240619163726 82 75 4.0 5.0 0.00 0.00 0.00 77 1018.7
20240619163704 84 89 3.0 8.0 0.00 0.00 0.00 60 1030.4
20240619163225 82 105 3.0 5.0 0.00 0.00 0.00 77 1018.6
20240619163204 84 113 4.0 8.0 0.00 0.00 0.00 60 1030.4
20240619163020 73 226 6.0 10.0 0.00 0.36 0.10 74 1015.0
20240619162723 83 104 4.0 6.0 0.00 0.00 0.00 77 1018.7
20240619162704 84 85 5.0 13.0 0.00 0.00 0.00 59 1030.4
20240619162222 84 108 2.0 3.0 0.00 0.00 0.00 76 1018.6
20240619162204 85 93 3.0 6.0 0.00 0.00 0.00 58 1030.3
20240619161708 84 99 4.0 5.0 0.00 0.00 0.00 74 1018.5
20240619161703 84 63 5.0 12.0 0.00 0.00 0.00 58 1030.3
20240619161520 72 194 6.0 11.0 0.00 0.36 0.10 76 1015.0
20240619161207 85 128 3.0 3.0 0.00 0.00 0.00 73 1018.3
20240619161204 84 89 3.0 7.0 0.00 0.00 0.00 59 1030.4
20240619160703 84 126 4.0 8.0 0.00 0.00 0.00 58 1030.6
20240619160653 86 100 2.0 3.0 0.00 0.00 0.00 71 1018.4
20240619160204 83 19 2.0 9.0 0.00 0.00 0.00 59 1030.6
20240619160153 83 95 5.0 6.0 0.00 0.00 0.00 75 1018.3
20240619160025 71 263 4.0 10.0 0.00 0.36 0.10 76 1015.1
20240619155704 83 59 4.0 8.0 0.00 0.00 0.00 61 1030.7
20240619155652 82 116 2.0 3.0 0.00 0.00 0.00 79 1018.5
20240619155204 83 79 3.0 6.0 0.00 0.00 0.00 61 1030.6
20240619155151 81 123 3.0 5.0 0.00 0.00 0.00 80 1018.5
20240619154703 85 30 4.0 6.0 0.00 0.00 0.00 59 1030.6
20240619154649 80 66 2.0 3.0 0.00 0.00 0.00 81 1018.5
20240619154520 72 246 5.0 11.0 0.00 0.36 0.10 76 1015.1
20240619154203 83 18 4.0 10.0 0.00 0.00 0.00 59 1030.5
20240619154149 81 112 2.0 5.0 0.00 0.00 0.00 81 1018.5
20240619153704 84 50 2.0 7.0 0.00 0.00 0.00 59 1030.4
20240619153648 81 100 3.0 5.0 0.00 0.00 0.00 80 1018.5
20240619153204 83 38 4.0 6.0 0.00 0.00 0.00 61 1030.3
20240619153145 81 95 3.0 3.0 0.00 0.00 0.00 80 1018.4
20240619153019 72 234 8.0 11.0 0.00 0.36 0.10 77 1015.2
20240619152703 83 16 3.0 7.0 0.00 0.00 0.00 59 1030.4
20240619152645 81 107 4.0 6.0 0.00 0.00 0.00 80 1018.3
20240619152204 82 72 4.0 8.0 0.00 0.00 0.00 61 1030.2
20240619152144 81 113 5.0 7.0 0.00 0.00 0.00 80 1018.6
20240619151642 80 84 3.0 5.0 0.00 0.00 0.00 81 1018.3
20240619151617 72 266 7.0 12.0 0.00 0.36 0.10 76 1015.2
20240619151203 83 78 4.0 7.0 0.00 0.00 0.00 60 1030.4
20240619151141 80 92 3.0 3.0 0.00 0.00 0.00 82 1018.4
20240619150703 83 165 2.0 8.0 0.00 0.00 0.00 60 1030.5
20240619150640 80 81 3.0 3.0 0.00 0.00 0.00 82 1018.3
20240619150204 85 88 3.0 8.0 0.00 0.00 0.00 58 1030.6
20240619150138 80 119 5.0 7.0 0.00 0.00 0.00 82 1018.3
20240619150017 72 285 7.0 12.0 0.00 0.36 0.10 74 1015.3
20240619145703 84 186 2.0 9.0 0.00 0.00 0.00 59 1030.5
20240619145637 80 89 3.0 5.0 0.00 0.00 0.00 82 1018.2
20240619145204 83 181 3.0 8.0 0.00 0.00 0.00 60 1030.5
20240619145136 79 103 6.0 7.0 0.00 0.00 0.00 83 1018.3
20240619144703 83 64 3.0 5.0 0.00 0.00 0.00 63 1030.7
20240619144636 79 67 5.0 7.0 0.00 0.00 0.00 84 1018.3
20240619144516 73 198 6.0 14.0 0.00 0.38 0.10 74 1015.4
20240619144203 83 159 3.0 10.0 0.00 0.00 0.00 61 1030.6
20240619144135 78 104 6.0 8.0 0.00 0.00 0.00 84 1018.3
20240619143704 82 154 2.0 7.0 0.00 0.00 0.00 62 1030.6
20240619143634 78 90 5.0 7.0 0.00 0.00 0.00 85 1018.1
20240619143204 82 106 4.0 9.0 0.00 0.00 0.00 61 1030.6
20240619143133 78 349 5.0 6.0 0.00 0.00 0.00 86 1018.2
20240619143022 74 262 9.0 14.0 0.00 0.38 0.10 76 1015.5
20240619142703 82 75 4.0 8.0 0.00 0.00 0.00 62 1030.6
20240619142632 78 117 5.0 7.0 0.00 0.00 0.00 84 1018.2
20240619142203 83 149 2.0 6.0 0.00 0.00 0.00 63 1030.5
20240619142130 78 94 7.0 8.0 0.00 0.00 0.00 83 1018.0
20240619141704 82 213 3.0 8.0 0.00 0.00 0.00 63 1030.7
20240619141630 78 88 4.0 6.0 0.00 0.00 0.00 83 1018.2
20240619141522 73 237 6.0 12.0 0.00 0.38 0.10 75 1015.4
20240619141203 82 108 3.0 8.0 0.00 0.00 0.00 64 1030.5
20240619141130 78 93 7.0 9.0 0.00 0.00 0.00 83 1018.1
20240619140704 80 79 4.0 7.0 0.00 0.00 0.00 66 1030.6
20240619140628 78 117 6.0 8.0 0.00 0.00 0.00 82 1018.2
20240619140204 81 175 3.0 6.0 0.00 0.00 0.00 66 1030.5
20240619140128 78 92 6.0 7.0 0.00 0.00 0.00 82 1018.3
20240619140014 73 205 4.0 12.0 0.00 0.38 0.10 76 1015.4
20240619135703 82 90 3.0 12.0 0.00 0.00 0.00 65 1030.5
20240619135627 78 97 7.0 9.0 0.00 0.00 0.00 82 1018.0
20240619135204 83 96 5.0 12.0 0.00 0.00 0.00 64 1030.6
20240619135126 78 124 5.0 8.0 0.00 0.00 0.00 82 1018.1
20240619134703 83 75 3.0 7.0 0.00 0.00 0.00 66 1030.4
20240619134624 79 66 4.0 6.0 0.00 0.00 0.00 81 1018.1
20240619134514 73 221 7.0 11.0 0.00 0.50 0.10 76 1015.6
20240619134124 79 103 7.0 9.0 0.00 0.00 0.00 80 1018.1
20240619133704 81 174 2.0 6.0 0.00 0.00 0.00 69 1030.5
20240619133622 79 91 7.0 11.0 0.00 0.00 0.00 80 1018.0
20240619133203 81 100 3.0 8.0 0.00 0.00 0.00 68 1030.2
20240619133121 79 77 6.0 8.0 0.00 0.00 0.00 80 1017.8
20240619133015 72 217 8.0 14.0 0.00 0.50 0.10 78 1015.6
20240619132703 81 99 2.0 9.0 0.00 0.00 0.00 68 1030.2
20240619132620 79 63 3.0 3.0 0.00 0.00 0.00 81 1017.8
20240619132119 79 111 4.0 5.0 0.00 0.00 0.00 81 1017.8
20240619131704 81 186 2.0 5.0 0.00 0.00 0.00 69 1030.4
20240619131617 79 60 2.0 2.0 0.00 0.00 0.00 82 1017.5
20240619131511 72 222 9.0 13.0 0.00 0.50 0.10 78 1015.5
20240619131117 78 113 4.0 5.0 0.00 0.00 0.00 83 1017.5
20240619130703 80 109 2.0 8.0 0.00 0.00 0.00 72 1030.2
20240619130615 77 85 3.0 3.0 0.00 0.00 0.00 83 1017.5
20240619130113 77 94 2.0 2.0 0.00 0.00 0.00 84 1017.5
20240619130010 72 235 9.0 14.0 0.00 0.50 0.10 79 1015.4
20240619125704 79 24 2.0 6.0 0.00 0.00 0.00 76 1030.3
20240619125612 77 83 3.0 5.0 0.00 0.00 0.00 84 1017.3
20240619125111 77 80 3.0 3.0 0.00 0.00 0.00 84 1017.6
20240619124611 77 102 2.0 3.0 0.00 0.00 0.00 84 1017.4
20240619124511 72 215 7.0 14.0 0.00 0.50 0.10 80 1015.2
20240619124203 78 43 2.0 13.0 0.00 0.00 0.00 78 1030.0
20240619124109 77 84 4.0 5.0 0.00 0.00 0.00 84 1017.4
20240619123703 79 133 3.0 7.0 0.00 0.00 0.00 80 1030.3
20240619123610 77 99 3.0 6.0 0.00 0.00 0.00 83 1017.4
20240619123204 78 79 2.0 8.0 0.00 0.00 0.00 80 1029.9
20240619123108 77 111 3.0 5.0 0.00 0.00 0.00 84 1017.1
20240619123015 71 259 10.0 14.0 0.00 0.50 0.10 80 1015.2
20240619122704 77 61 2.0 5.0 0.00 0.00 0.00 82 1029.9
20240619122605 77 115 4.0 5.0 0.00 0.00 0.00 84 1017.1
20240619122100 77 84 2.0 2.0 0.00 0.00 0.00 84 1017.1
20240619121704 77 75 3.0 5.0 0.00 0.00 0.00 82 1030.0
20240619121600 77 77 4.0 5.0 0.00 0.00 0.00 84 1017.1
20240619121508 72 223 7.0 14.0 0.00 0.50 0.10 80 1015.2
20240619121058 76 96 3.0 6.0 0.00 0.00 0.00 84 1016.8
20240619120703 76 39 2.0 6.0 0.00 0.00 0.00 84 1029.8
20240619120557 76 115 3.0 3.0 0.00 0.00 0.00 85 1016.8
20240619120203 75 123 3.0 6.0 0.00 0.00 0.00 85 1029.8
20240619120056 76 102 4.0 5.0 0.00 0.00 0.00 86 1016.6
20240619120007 71 219 8.0 13.0 0.00 0.50 0.10 80 1015.2
20240619115704 74 137 2.0 6.0 0.00 0.00 0.00 86 1029.8
20240619115556 75 83 1.0 2.0 0.00 0.00 0.00 86 1016.6
20240619115057 75 88 2.0 3.0 0.00 0.00 0.00 86 1016.5
20240619114703 72 102 1.0 3.0 0.00 0.00 0.00 93 1029.8
20240619114556 75 68 2.0 2.0 0.00 0.00 0.00 86 1016.5
20240619114506 72 230 8.0 15.0 0.00 0.50 0.10 79 1015.1
20240619114203 71 151 1.0 3.0 0.00 0.00 0.00 96 1029.7
20240619114056 75 85 2.0 2.0 0.00 0.00 0.00 86 1016.4
20240619113703 70 182 1.0 2.0 0.00 0.00 0.00 97 1029.8
20240619113556 75 115 3.0 3.0 0.00 0.00 0.00 86 1016.3
20240619113055 74 70 1.0 1.0 0.00 0.00 0.00 86 1016.3
20240619113005 72 193 8.0 12.0 0.00 0.50 0.10 79 1015.1
20240619112704 68 349 1.0 3.0 0.00 0.00 0.00 98 1029.7
20240619112554 74 72 2.0 2.0 0.00 0.00 0.00 86 1016.4
20240619112204 68 248 1.0 3.0 0.00 0.00 0.00 98 1029.6
20240619112052 74 76 1.0 1.0 0.00 0.00 0.00 86 1016.3
20240619111704 67 240 1.0 3.0 0.00 0.00 0.00 98 1029.9
20240619111551 74 95 2.0 2.0 0.00 0.00 0.00 86 1016.4
20240619111504 72 234 8.0 14.0 0.00 0.50 0.10 80 1015.0
20240619111050 74 77 2.0 2.0 0.00 0.00 0.00 86 1016.1
20240619110703 67 188 0.0 3.0 0.00 0.00 0.00 98 1029.6
20240619110549 74 99 2.0 2.0 0.00 0.00 0.00 86 1016.1
20240619110047 74 74 2.0 2.0 0.00 0.00 0.00 86 1016.1
20240619110011 71 165 7.0 11.0 0.00 0.50 0.10 78 1014.8
20240619105546 74 92 3.0 3.0 0.00 0.00 0.00 87 1016.0
20240619105045 74 49 1.0 2.0 0.00 0.00 0.00 87 1016.0
20240619104704 66 228 0.0 3.0 0.00 0.00 0.00 98 1029.5
20240619104545 74 87 1.0 1.0 0.00 0.00 0.00 87 1016.0
20240619104504 73 183 8.0 12.0 0.00 0.50 0.10 77 1014.8
20240619104204 66 263 0.0 3.0 0.00 0.00 0.00 98 1029.4
20240619104043 74 52 1.0 1.0 0.00 0.00 0.00 87 1016.0
20240619103703 65 196 1.0 3.0 0.00 0.00 0.00 98 1029.3
20240619103542 74 56 1.0 1.0 0.00 0.00 0.00 87 1016.1
20240619103203 65 257 1.0 2.0 0.00 0.00 0.00 98 1029.1
20240619103107 73 170 5.0 11.0 0.00 0.50 0.10 78 1014.5
20240619103040 74 52 2.0 2.0 0.00 0.00 0.00 87 1015.9
20240619102703 65 80 1.0 3.0 0.00 0.00 0.00 98 1029.4
20240619102539 75 47 1.0 1.0 0.00 0.00 0.00 86 1015.8
20240619102204 65 30 2.0 3.0 0.00 0.00 0.00 98 1029.3
20240619102037 75 45 2.0 2.0 0.00 0.00 0.00 87 1015.9
20240619101705 65 351 1.0 2.0 0.00 0.00 0.00 98 1029.2
20240619101557 73 212 5.0 11.0 0.00 0.50 0.10 79 1014.3
20240619101537 75 47 1.0 1.0 0.00 0.00 0.00 86 1015.8
20240619101036 75 71 1.0 1.0 0.00 0.00 0.00 86 1015.8
20240619100703 64 210 0.0 2.0 0.00 0.00 0.00 98 1029.1
20240619100535 75 74 1.0 1.0 0.00 0.00 0.00 86 1015.7
20240619100204 64 275 0.0 2.0 0.00 0.00 0.00 98 1029.1
20240619100056 72 209 6.0 13.0 0.00 0.50 0.10 80 1014.0
20240619100032 75 53 2.0 2.0 0.00 0.00 0.00 85 1015.7
20240619095704 64 245 2.0 5.0 0.00 0.00 0.00 98 1029.0
20240619095532 75 100 2.0 2.0 0.00 0.00 0.00 85 1015.7
20240619095204 65 226 1.0 3.0 0.00 0.00 0.00 98 1028.9
20240619095029 75 64 1.0 2.0 0.00 0.00 0.00 85 1015.5
20240619094703 64 278 2.0 3.0 0.00 0.00 0.00 98 1029.0
20240619094603 72 188 5.0 9.0 0.00 0.50 0.10 80 1013.9
20240619094529 75 92 2.0 2.0 0.00 0.00 0.00 85 1015.5
20240619094203 64 242 1.0 3.0 0.00 0.00 0.00 98 1028.8
20240619094028 76 89 3.0 3.0 0.00 0.00 0.00 85 1015.3
20240619093703 65 321 1.0 2.0 0.00 0.00 0.00 98 1029.0
20240619093527 76 80 1.0 1.0 0.00 0.00 0.00 84 1015.4
20240619093203 65 306 1.0 3.0 0.00 0.00 0.00 98 1028.8
20240619093051 72 192 5.0 9.0 0.00 0.50 0.10 81 1013.7
20240619093025 76 94 1.0 2.0 0.00 0.00 0.00 84 1015.5
20240619092704 65 319 2.0 3.0 0.00 0.00 0.00 98 1028.8
20240619092524 76 98 2.0 2.0 0.00 0.00 0.00 84 1015.4
20240619092203 65 21 1.0 3.0 0.00 0.00 0.00 98 1028.7
20240619092024 76 78 3.0 3.0 0.00 0.00 0.00 84 1015.4
20240619091704 65 167 1.0 3.0 0.00 0.00 0.00 98 1028.5
20240619091549 71 208 6.0 9.0 0.00 0.50 0.10 82 1013.6
20240619091521 76 104 4.0 5.0 0.00 0.00 0.00 84 1015.4
20240619091204 65 121 0.0 2.0 0.00 0.00 0.00 98 1028.4
20240619091020 76 100 3.0 3.0 0.00 0.00 0.00 84 1015.3
20240619090519 76 66 2.0 3.0 0.00 0.00 0.00 83 1015.2
20240619090203 65 268 2.0 3.0 0.00 0.00 0.00 97 1028.5
20240619090046 71 226 6.0 10.0 0.00 0.50 0.10 86 1013.4
20240619090018 77 95 3.0 3.0 0.00 0.00 0.00 83 1015.3
20240619085704 65 23 1.0 2.0 0.00 0.00 0.00 97 1028.4
20240619085516 77 85 4.0 5.0 0.00 0.00 0.00 82 1015.4
20240619085015 77 121 3.0 3.0 0.00 0.00 0.00 82 1015.0
20240619084703 65 206 1.0 2.0 0.00 0.00 0.00 98 1028.2
20240619084543 70 224 8.0 11.0 0.00 0.50 0.10 87 1013.6
20240619084514 77 123 2.0 3.0 0.00 0.00 0.00 83 1015.2
20240619084204 65 207 1.0 2.0 0.00 0.00 0.00 97 1028.3
20240619084012 77 68 3.0 5.0 0.00 0.00 0.00 83 1015.3
20240619083704 65 357 0.0 2.0 0.00 0.00 0.00 97 1028.2
20240619083511 76 106 2.0 2.0 0.00 0.00 0.00 83 1015.2
20240619083204 65 209 0.0 1.0 0.00 0.00 0.00 97 1028.2
20240619083047 68 266 5.0 8.0 0.00 0.50 0.10 90 1013.3
20240619083009 76 117 3.0 3.0 0.00 0.00 0.00 83 1014.9
20240619082703 65 324 0.0 1.0 0.00 0.00 0.00 97 1028.0
20240619082507 76 117 3.0 3.0 0.00 0.00 0.00 84 1015.1
20240619082203 65 315 0.0 0.0 0.00 0.00 0.00 97 1028.1
20240619082005 76 89 3.0 3.0 0.00 0.00 0.00 83 1015.1
20240619081704 65 126 0.0 1.0 0.00 0.00 0.00 97 1028.1
20240619081536 67 240 3.0 7.0 0.00 0.50 0.10 92 1013.1
20240619081503 76 95 1.0 2.0 0.00 0.00 0.00 83 1015.1
20240619081204 65 115 0.0 1.0 0.00 0.00 0.00 97 1027.9
20240619081002 76 101 4.0 5.0 0.00 0.00 0.00 83 1015.3
20240619080704 65 89 0.0 0.0 0.00 0.00 0.00 97 1028.1
20240619080501 76 91 3.0 3.0 0.00 0.00 0.00 84 1015.2
20240619080034 66 186 3.0 5.0 0.00 0.50 0.10 92 1013.2
20240619075959 76 89 3.0 3.0 0.00 0.00 0.00 83 1015.3
20240619075459 76 102 4.0 5.0 0.00 0.00 0.00 83 1015.4
20240619074957 76 101 3.0 5.0 0.00 0.00 0.00 83 1015.4
20240619074704 65 326 0.0 0.0 0.00 0.00 0.00 97 1028.0
20240619074532 66 223 6.0 9.0 0.00 0.50 0.10 94 1013.0
20240619074457 76 92 3.0 3.0 0.00 0.00 0.00 83 1015.4
20240619074203 65 309 0.0 0.0 0.00 0.00 0.00 97 1028.1
20240619073955 76 83 4.0 5.0 0.00 0.00 0.00 84 1015.4
20240619073704 65 142 0.0 0.0 0.00 0.00 0.00 97 1027.9
20240619073453 76 119 4.0 5.0 0.00 0.00 0.00 83 1015.3
20240619073204 65 142 0.0 0.0 0.00 0.00 0.00 97 1027.9
20240619073026 65 191 6.0 12.0 0.01 0.50 0.10 94 1012.9
20240619072952 76 94 3.0 5.0 0.00 0.00 0.00 84 1015.3
20240619072703 65 142 0.0 0.0 0.00 0.00 0.00 97 1027.8
20240619072451 76 85 2.0 2.0 0.00 0.00 0.00 84 1015.4
20240619072204 65 142 0.0 0.0 0.00 0.00 0.00 97 1027.9
20240619071950 76 77 3.0 3.0 0.00 0.00 0.00 84 1015.5
20240619071703 65 142 0.0 0.0 0.00 0.00 0.00 97 1027.9
20240619071524 64 180 7.0 13.0 0.01 0.50 0.10 94 1012.7
20240619071450 76 76 4.0 5.0 0.00 0.00 0.00 85 1015.4
20240619071203 65 172 0.0 1.0 0.00 0.00 0.00 97 1027.9
20240619070948 76 107 3.0 5.0 0.00 0.00 0.00 85 1015.3
20240619070704 65 343 0.0 0.0 0.00 0.00 0.00 97 1027.8
20240619070448 76 95 3.0 3.0 0.00 0.00 0.00 85 1015.5
20240619070203 65 241 0.0 1.0 0.00 0.00 0.00 97 1027.9
20240619070010 65 155 7.0 13.0 0.01 0.50 0.10 94 1012.6
20240619065947 76 82 3.0 3.0 0.00 0.00 0.00 86 1015.4
20240619065703 65 306 1.0 1.0 0.00 0.00 0.00 97 1027.9
20240619065445 76 96 3.0 5.0 0.00 0.00 0.00 86 1015.5
20240619065203 65 135 0.0 0.0 0.00 0.00 0.00 97 1027.7
20240619064944 76 54 4.0 5.0 0.00 0.00 0.00 86 1015.3
20240619064703 65 135 0.0 0.0 0.00 0.00 0.00 97 1027.8
20240619064509 64 147 8.0 16.0 0.00 0.50 0.09 94 1012.4
20240619064442 75 94 4.0 5.0 0.00 0.00 0.00 87 1015.5
20240619064204 65 135 0.0 0.0 0.00 0.00 0.00 97 1027.8
20240619063941 75 102 3.0 3.0 0.00 0.00 0.00 87 1015.4
20240619063703 65 283 0.0 0.0 0.00 0.00 0.00 97 1027.7
20240619063441 75 92 3.0 3.0 0.00 0.00 0.00 88 1015.3
20240619063203 65 288 0.0 1.0 0.00 0.00 0.00 96 1028.0
20240619063007 64 148 7.0 14.0 0.00 0.50 0.09 94 1012.1
20240619062939 75 124 3.0 3.0 0.00 0.00 0.00 88 1015.3
20240619062704 65 247 1.0 1.0 0.00 0.00 0.00 96 1028.0
20240619062439 75 81 1.0 2.0 0.00 0.00 0.00 89 1015.4
20240619062204 65 233 0.0 1.0 0.00 0.00 0.00 96 1027.9
20240619061937 75 97 3.0 3.0 0.00 0.00 0.00 89 1015.5
20240619061704 66 279 1.0 1.0 0.00 0.00 0.00 96 1027.7
20240619061512 64 159 5.0 9.0 0.00 0.50 0.09 94 1012.1
20240619061436 75 54 1.0 1.0 0.00 0.00 0.00 90 1015.6
20240619061203 66 315 0.0 1.0 0.00 0.00 0.00 96 1027.6
20240619060935 75 101 2.0 2.0 0.00 0.00 0.00 90 1015.7
20240619060434 75 56 0.0 0.0 0.00 0.00 0.00 92 1015.4
20240619060204 65 289 0.0 1.0 0.00 0.00 0.00 96 1027.9
20240619060005 64 147 3.0 7.0 0.00 0.50 0.09 94 1012.0
20240619055930 75 48 0.0 0.0 0.00 0.00 0.00 91 1015.6
20240619055703 66 267 1.0 1.0 0.00 0.00 0.00 96 1027.9
20240619055428 75 33 0.0 1.0 0.00 0.00 0.00 91 1015.6
20240619055203 66 313 1.0 1.0 0.00 0.00 0.00 96 1027.8
20240619054927 75 69 0.0 0.0 0.00 0.00 0.00 92 1015.7
20240619054504 64 131 1.0 4.0 0.00 0.50 0.09 94 1011.7
20240619054425 74 47 0.0 1.0 0.00 0.00 0.00 93 1015.5
20240619054203 66 129 0.0 1.0 0.00 0.00 0.00 96 1027.8
20240619053923 73 43 0.0 0.0 0.00 0.00 0.00 94 1015.5
20240619053704 66 89 0.0 0.0 0.00 0.00 0.00 96 1027.9
20240619053423 73 355 0.0 0.0 0.00 0.00 0.00 93 1015.6
20240619053204 66 89 0.0 1.0 0.00 0.00 0.00 96 1027.8
20240619053003 64 150 1.0 4.0 0.00 0.50 0.09 94 1011.5
20240619052922 73 355 0.0 0.0 0.00 0.00 0.00 93 1015.7
20240619052704 66 126 1.0 1.0 0.00 0.00 0.00 96 1027.9
20240619052421 74 355 0.0 0.0 0.00 0.00 0.00 93 1015.7
20240619052203 66 217 0.0 0.0 0.00 0.00 0.00 96 1027.9
20240619051919 73 355 0.0 0.0 0.00 0.00 0.00 93 1015.7
20240619051704 66 235 0.0 1.0 0.00 0.00 0.00 95 1027.9
20240619051503 64 143 0.0 2.0 0.00 0.50 0.09 94 1011.5
20240619051418 73 355 0.0 0.0 0.00 0.00 0.00 93 1015.8
20240619051203 67 246 0.0 1.0 0.00 0.00 0.00 95 1028.0
20240619050916 74 355 0.0 0.0 0.00 0.00 0.00 93 1015.8
20240619050703 67 289 0.0 1.0 0.00 0.00 0.00 95 1028.1
20240619050415 74 355 0.0 0.0 0.00 0.00 0.00 93 1015.9
20240619050203 66 262 0.0 1.0 0.00 0.00 0.00 95 1028.0
20240619050002 63 138 1.0 3.0 0.00 0.50 0.09 94 1011.4
20240619045914 74 355 0.0 0.0 0.00 0.00 0.00 93 1015.6
20240619045703 67 323 0.0 1.0 0.00 0.00 0.00 95 1027.9
20240619045412 74 355 0.0 0.0 0.00 0.00 0.00 92 1015.9
20240619044912 74 355 0.0 0.0 0.00 0.00 0.00 92 1015.8
20240619044704 67 282 1.0 1.0 0.00 0.00 0.00 95 1027.9
20240619044601 63 145 1.0 3.0 0.00 0.62 0.09 94 1011.5
20240619044411 74 355 0.0 0.0 0.00 0.00 0.00 92 1015.6
20240619044204 67 224 0.0 0.0 0.00 0.00 0.00 95 1027.7
20240619043910 74 355 0.0 0.0 0.00 0.00 0.00 92 1015.7
20240619043704 67 224 0.0 0.0 0.00 0.00 0.00 95 1027.8
20240619043407 74 355 0.0 0.0 0.00 0.00 0.00 91 1015.9
20240619043203 67 87 0.0 2.0 0.00 0.00 0.00 94 1027.7
20240619043115 62 189 0.0 2.0 0.00 0.62 0.09 94 1011.2
20240619042905 74 355 0.0 0.0 0.00 0.00 0.00 91 1015.9
20240619042404 74 355 0.0 0.0 0.00 0.00 0.00 91 1016.0
20240619042204 67 311 0.0 1.0 0.00 0.00 0.00 94 1027.8
20240619041902 74 355 0.0 0.0 0.00 0.00 0.00 91 1016.0
20240619041607 63 50 2.0 4.0 0.00 0.62 0.09 94 1010.8
20240619041401 74 355 0.0 0.0 0.00 0.00 0.00 91 1016.0
20240619041203 67 278 1.0 1.0 0.00 0.00 0.00 94 1028.0
20240619040900 74 355 0.0 0.0 0.00 0.00 0.00 90 1015.9
20240619040704 67 310 0.0 1.0 0.00 0.00 0.00 93 1028.1
20240619040359 74 355 0.0 0.0 0.00 0.00 0.00 90 1016.2
20240619040113 63 59 0.0 3.0 0.01 0.62 0.09 94 1011.0
20240619035858 74 355 0.0 0.0 0.00 0.00 0.00 90 1016.1
20240619035703 68 255 1.0 1.0 0.00 0.00 0.00 92 1027.6
20240619035356 74 355 0.0 0.0 0.00 0.00 0.00 90 1016.0
20240619035204 68 224 0.0 1.0 0.00 0.00 0.00 92 1027.8
20240619034854 74 355 0.0 0.0 0.00 0.00 0.00 90 1015.8
20240619034703 68 246 1.0 3.0 0.00 0.00 0.00 92 1027.9
20240619034557 64 47 2.0 6.0 0.01 0.63 0.09 94 1011.0
20240619034351 74 355 0.0 0.0 0.00 0.00 0.00 90 1015.9
20240619034203 69 284 2.0 3.0 0.00 0.00 0.00 92 1028.2
20240619033851 74 355 0.0 0.0 0.00 0.00 0.00 90 1016.0
20240619033704 68 225 1.0 1.0 0.00 0.00 0.00 92 1027.9
20240619033349 74 355 0.0 0.0 0.00 0.00 0.00 90 1015.9
20240619033203 69 211 0.0 1.0 0.00 0.00 0.00 92 1028.0
20240619033102 64 59 2.0 4.0 0.01 0.63 0.09 94 1011.3
20240619032848 74 355 0.0 0.0 0.00 0.00 0.00 90 1015.8
20240619032704 69 191 1.0 1.0 0.00 0.00 0.00 92 1028.0
20240619032347 74 355 0.0 0.0 0.00 0.00 0.00 90 1015.9
20240619032204 68 228 1.0 1.0 0.00 0.00 0.00 91 1028.2
20240619031845 74 355 0.0 0.0 0.00 0.00 0.00 89 1016.0
20240619031704 69 277 0.0 1.0 0.00 0.00 0.00 90 1028.3
20240619031555 64 6 3.0 6.0 0.02 0.63 0.09 94 1011.1
20240619031344 74 355 0.0 0.0 0.00 0.00 0.00 89 1015.9
20240619031204 69 314 0.0 1.0 0.00 0.00 0.00 91 1028.4
20240619030843 74 355 0.0 0.0 0.00 0.00 0.00 89 1015.8
20240619030703 69 254 0.0 1.0 0.00 0.00 0.00 89 1028.1
20240619030341 75 355 0.0 0.0 0.00 0.00 0.00 89 1015.8
20240619030203 69 257 1.0 1.0 0.00 0.00 0.00 90 1028.1
20240619030054 64 313 2.0 3.0 0.01 0.62 0.09 94 1011.5
20240619025840 74 355 0.0 0.0 0.00 0.00 0.00 88 1015.8
20240619025704 69 265 0.0 1.0 0.00 0.00 0.00 89 1028.1
20240619025340 75 355 0.0 0.0 0.00 0.00 0.00 88 1015.9
20240619025204 70 242 1.0 1.0 0.00 0.00 0.00 88 1028.0
20240619024838 75 355 0.0 0.0 0.00 0.00 0.00 88 1015.8
20240619024703 70 172 0.0 2.0 0.00 0.00 0.00 87 1028.0
20240619024606 64 184 0.0 0.0 0.01 0.66 0.09 94 1011.6
20240619024337 75 355 0.0 0.0 0.00 0.00 0.00 88 1015.9
20240619024204 70 131 0.0 1.0 0.00 0.00 0.00 87 1028.2
20240619023835 75 355 0.0 0.0 0.00 0.00 0.00 88 1016.0
20240619023334 75 355 0.0 0.0 0.00 0.00 0.00 88 1016.1
20240619023204 70 224 0.0 2.0 0.00 0.00 0.00 87 1028.1
20240619023112 64 184 0.0 4.0 0.01 0.66 0.09 94 1011.8